createdAt,value
2022-12-09T00:00:02.541Z,2.17
2022-12-09T00:02:28.887Z,2.12
2022-12-09T00:04:55.515Z,2.09
2022-12-09T00:07:21.911Z,2.05
2022-12-09T00:09:48.414Z,2.08
2022-12-09T00:12:14.685Z,2.02
2022-12-09T00:14:41.056Z,1.99
2022-12-09T00:17:07.634Z,2.02
2022-12-09T00:19:34.349Z,2.03
2022-12-09T00:22:00.638Z,2.11
2022-12-09T00:24:26.897Z,2.17
2022-12-09T00:26:53.433Z,2.21
2022-12-09T00:29:19.685Z,2.18
2022-12-09T00:31:46.019Z,2.15
2022-12-09T00:34:12.559Z,2.21
2022-12-09T00:36:38.980Z,2.24
2022-12-09T00:39:05.369Z,2.29
2022-12-09T00:41:31.682Z,2.27
2022-12-09T00:43:57.935Z,2.28
2022-12-09T00:46:24.266Z,2.25
2022-12-09T00:48:50.600Z,2.23
2022-12-09T00:51:17.166Z,2.22
2022-12-09T00:53:43.417Z,2.19
2022-12-09T00:56:09.704Z,2.21
2022-12-09T00:58:35.976Z,2.18
2022-12-09T01:01:02.386Z,2.15
2022-12-09T01:03:28.806Z,2.16
2022-12-09T01:05:55.244Z,2.13
2022-12-09T01:08:21.569Z,2.09
2022-12-09T01:10:48.144Z,2.03
2022-12-09T01:13:14.477Z,2.07
2022-12-09T01:15:40.919Z,2.00
2022-12-09T01:18:07.255Z,1.96
2022-12-09T01:20:33.609Z,1.95
2022-12-09T01:23:00.006Z,1.97
2022-12-09T01:25:26.310Z,1.99
2022-12-09T01:27:52.566Z,1.99
2022-12-09T01:30:18.811Z,2.01
2022-12-09T01:32:45.469Z,2.00
2022-12-09T01:35:11.843Z,2.01
2022-12-09T01:37:38.383Z,1.99
2022-12-09T01:40:05.238Z,1.95
2022-12-09T01:42:32.008Z,1.95
2022-12-09T01:44:58.288Z,1.81
2022-12-09T01:47:24.923Z,1.79
2022-12-09T01:49:51.261Z,1.83
2022-12-09T01:52:17.514Z,1.84
2022-12-09T01:54:43.860Z,1.79
2022-12-09T01:57:10.169Z,1.78
2022-12-09T01:59:36.446Z,1.82
2022-12-09T02:02:02.751Z,1.88
2022-12-09T02:04:29.181Z,1.86
2022-12-09T02:06:55.675Z,1.85
2022-12-09T02:09:22.296Z,1.85
2022-12-09T02:11:48.703Z,1.90
2022-12-09T02:14:15.273Z,1.85
2022-12-09T02:16:41.999Z,1.85
2022-12-09T02:19:08.331Z,1.81
2022-12-09T02:21:34.603Z,1.84
2022-12-09T02:24:01.009Z,1.82
2022-12-09T02:26:27.348Z,1.75
2022-12-09T02:28:53.975Z,1.78
2022-12-09T02:31:20.470Z,1.75
2022-12-09T02:33:46.846Z,1.80
2022-12-09T02:36:13.119Z,1.71
2022-12-09T02:38:39.422Z,1.73
2022-12-09T02:41:05.911Z,1.71
2022-12-09T02:43:32.297Z,1.63
2022-12-09T02:45:58.606Z,1.52
2022-12-09T02:48:25.208Z,1.54
2022-12-09T02:50:51.750Z,1.51
2022-12-09T02:53:18.052Z,1.53
2022-12-09T02:55:44.322Z,1.57
2022-12-09T02:58:10.579Z,1.58
2022-12-09T03:00:36.865Z,1.51
2022-12-09T03:03:03.230Z,1.58
2022-12-09T03:05:30.012Z,1.62
2022-12-09T03:07:56.943Z,1.67
2022-12-09T03:10:23.616Z,1.62
2022-12-09T03:12:49.936Z,1.60
2022-12-09T03:15:16.217Z,1.54
2022-12-09T03:17:42.555Z,1.55
2022-12-09T03:20:09.086Z,1.56
2022-12-09T03:22:36.216Z,1.61
2022-12-09T03:25:02.792Z,1.55
2022-12-09T03:27:29.220Z,1.56
2022-12-09T03:29:55.525Z,1.56
2022-12-09T03:32:21.836Z,1.56
2022-12-09T03:34:48.094Z,1.56
2022-12-09T03:37:14.398Z,1.57
2022-12-09T03:39:40.808Z,1.58
2022-12-09T03:42:07.291Z,1.58
2022-12-09T03:44:33.698Z,1.61
2022-12-09T03:47:00.330Z,1.60
2022-12-09T03:49:27.041Z,1.67
2022-12-09T03:51:53.657Z,1.67
2022-12-09T03:54:20.249Z,1.66
2022-12-09T03:56:46.856Z,1.56
2022-12-09T03:59:13.235Z,1.62
2022-12-09T04:01:39.945Z,1.59
2022-12-09T04:04:06.474Z,1.62
2022-12-09T04:06:32.874Z,1.64
2022-12-09T04:09:02.367Z,1.63
2022-12-09T04:11:29.640Z,1.61
2022-12-09T04:13:55.972Z,1.63
2022-12-09T04:16:22.377Z,1.64
2022-12-09T04:18:49.210Z,1.64
2022-12-09T04:21:15.539Z,1.61
2022-12-09T04:23:43.429Z,1.66
2022-12-09T04:26:10.009Z,1.66
2022-12-09T04:28:36.602Z,1.66
2022-12-09T04:31:03.006Z,1.63
2022-12-09T04:33:29.327Z,1.65
2022-12-09T04:35:55.730Z,1.68
2022-12-09T04:38:22.025Z,1.70
2022-12-09T04:40:48.427Z,1.69
2022-12-09T04:43:14.736Z,1.69
2022-12-09T04:45:41.367Z,1.67
2022-12-09T04:48:07.785Z,1.63
2022-12-09T04:50:34.109Z,1.65
2022-12-09T04:53:00.489Z,1.65
2022-12-09T04:55:26.910Z,1.68
2022-12-09T04:57:53.180Z,1.67
2022-12-09T05:00:19.620Z,1.64
2022-12-09T05:02:46.197Z,1.67
2022-12-09T05:05:13.036Z,1.69
2022-12-09T05:07:39.747Z,1.66
2022-12-09T05:10:07.014Z,1.54
2022-12-09T05:12:33.949Z,1.61
2022-12-09T05:15:00.632Z,1.66
2022-12-09T05:17:27.498Z,1.57
2022-12-09T05:19:54.196Z,1.52
2022-12-09T05:22:20.632Z,1.48
2022-12-09T05:24:47.378Z,1.50
2022-12-09T05:27:13.846Z,1.53
2022-12-09T05:29:40.197Z,1.52
2022-12-09T05:32:06.549Z,1.49
2022-12-09T05:34:33.015Z,1.51
2022-12-09T05:36:59.512Z,1.54
2022-12-09T05:39:25.775Z,1.53
2022-12-09T05:41:52.272Z,1.54
2022-12-09T05:44:18.912Z,1.53
2022-12-09T05:46:45.536Z,1.50
2022-12-09T05:49:11.985Z,1.46
2022-12-09T05:51:38.518Z,1.41
2022-12-09T05:54:05.400Z,1.47
2022-12-09T05:56:31.877Z,1.38
2022-12-09T05:58:58.910Z,1.45
2022-12-09T06:01:25.721Z,1.41
2022-12-09T06:03:52.377Z,1.43
2022-12-09T06:06:19.841Z,1.42
2022-12-09T06:08:46.651Z,1.44
2022-12-09T06:11:13.586Z,1.46
2022-12-09T06:13:40.068Z,1.47
2022-12-09T06:16:06.891Z,1.45
2022-12-09T06:18:33.832Z,1.39
2022-12-09T06:21:00.306Z,1.47
2022-12-09T06:23:26.967Z,1.47
2022-12-09T06:25:53.689Z,1.48
2022-12-09T06:28:20.273Z,1.51
2022-12-09T06:30:47.187Z,1.43
2022-12-09T06:33:45.014Z,1.43
2022-12-09T06:36:00.141Z,1.51
2022-12-09T06:38:26.640Z,1.53
2022-12-09T06:40:53.184Z,1.48
2022-12-09T06:43:19.518Z,1.39
2022-12-09T06:45:46.221Z,1.36
2022-12-09T06:48:12.658Z,1.31
2022-12-09T06:50:39.723Z,1.31
2022-12-09T06:53:06.110Z,1.39
2022-12-09T06:55:32.488Z,1.35
2022-12-09T06:57:58.746Z,1.38
2022-12-09T07:00:25.184Z,1.34
2022-12-09T07:02:51.904Z,1.31
2022-12-09T07:05:19.142Z,1.25
2022-12-09T07:07:45.853Z,1.29
2022-12-09T07:10:12.381Z,1.34
2022-12-09T07:12:39.560Z,1.39
2022-12-09T07:15:06.587Z,1.43
2022-12-09T07:17:33.996Z,1.44
2022-12-09T07:20:06.561Z,1.43
2022-12-09T07:22:33.735Z,1.37
2022-12-09T07:25:00.349Z,1.32
2022-12-09T07:27:26.838Z,1.38
2022-12-09T07:29:53.494Z,1.41
2022-12-09T07:32:20.130Z,1.44
2022-12-09T07:34:46.609Z,1.42
2022-12-09T07:37:13.374Z,1.40
2022-12-09T07:39:40.029Z,1.43
2022-12-09T07:42:06.561Z,1.39
2022-12-09T07:44:33.154Z,1.41
2022-12-09T07:46:59.571Z,1.41
2022-12-09T07:49:26.605Z,1.37
2022-12-09T07:51:53.051Z,1.38
2022-12-09T07:54:19.767Z,1.44
2022-12-09T07:56:46.248Z,1.49
2022-12-09T07:59:12.986Z,1.55
2022-12-09T08:01:39.331Z,1.57
2022-12-09T08:04:06.253Z,1.63
2022-12-09T08:06:33.171Z,1.66
2022-12-09T08:08:59.874Z,1.65
2022-12-09T08:11:26.918Z,1.67
2022-12-09T08:13:53.996Z,1.70
2022-12-09T08:16:20.597Z,1.69
2022-12-09T08:18:47.200Z,1.70
2022-12-09T08:21:14.015Z,1.74
2022-12-09T08:23:40.507Z,1.77
2022-12-09T08:26:07.596Z,1.78
2022-12-09T08:28:34.262Z,1.79
2022-12-09T08:31:01.170Z,1.82
2022-12-09T08:33:27.690Z,1.82
2022-12-09T08:35:54.132Z,1.77
2022-12-09T08:38:20.532Z,1.78
2022-12-09T08:40:46.917Z,1.75
2022-12-09T08:43:13.375Z,1.76
2022-12-09T08:45:39.975Z,1.77
2022-12-09T08:48:06.415Z,1.75
2022-12-09T08:50:33.631Z,1.78
2022-12-09T08:53:00.285Z,1.77
2022-12-09T08:55:26.622Z,1.78
2022-12-09T08:57:53.423Z,1.76
2022-12-09T09:00:20.368Z,1.79
2022-12-09T09:02:47.021Z,1.78
2022-12-09T09:05:14.366Z,1.82
2022-12-09T09:07:40.976Z,1.82
2022-12-09T09:10:08.696Z,1.80
2022-12-09T09:12:42.141Z,1.81
2022-12-09T09:15:10.531Z,1.81
2022-12-09T09:17:37.624Z,1.83
2022-12-09T09:20:04.279Z,1.87
2022-12-09T09:22:31.241Z,1.87
2022-12-09T09:24:57.631Z,1.87
2022-12-09T09:27:24.350Z,1.92
2022-12-09T09:29:50.950Z,1.93
2022-12-09T09:32:17.396Z,1.94
2022-12-09T09:34:44.385Z,1.93
2022-12-09T09:37:10.819Z,1.96
2022-12-09T09:39:37.461Z,1.99
2022-12-09T09:42:08.257Z,2.05
2022-12-09T09:44:35.340Z,2.01
2022-12-09T09:47:02.052Z,2.01
2022-12-09T09:49:28.882Z,2.03
2022-12-09T09:51:55.657Z,2.01
2022-12-09T09:54:22.383Z,2.08
2022-12-09T09:56:49.254Z,2.04
2022-12-09T09:59:15.978Z,2.00
2022-12-09T10:01:42.517Z,2.00
2022-12-09T10:04:09.880Z,2.03
2022-12-09T10:06:36.545Z,2.04
2022-12-09T10:09:03.612Z,2.02
2022-12-09T10:11:30.608Z,2.00
2022-12-09T10:13:57.467Z,2.00
2022-12-09T10:16:24.169Z,2.03
2022-12-09T10:18:50.786Z,2.02
2022-12-09T10:21:17.346Z,2.04
2022-12-09T10:23:44.176Z,2.07
2022-12-09T10:26:11.030Z,2.06
2022-12-09T10:28:37.777Z,2.09
2022-12-09T10:31:04.276Z,2.09
2022-12-09T10:33:30.938Z,2.10
2022-12-09T10:35:57.702Z,2.14
2022-12-09T10:38:24.275Z,2.16
2022-12-09T10:40:50.658Z,2.10
2022-12-09T10:43:17.038Z,2.13
2022-12-09T10:46:15.726Z,2.11
2022-12-09T10:48:33.017Z,2.13
2022-12-09T10:51:00.116Z,2.19
2022-12-09T10:53:26.567Z,2.22
2022-12-09T10:55:53.213Z,2.23
2022-12-09T10:58:19.745Z,2.28
2022-12-09T11:00:46.264Z,2.31
2022-12-09T11:03:12.982Z,2.28
2022-12-09T11:05:39.591Z,2.29
2022-12-09T11:08:06.182Z,2.31
2022-12-09T11:10:33.397Z,2.30
2022-12-09T11:13:00.311Z,2.30
2022-12-09T11:15:27.133Z,2.30
2022-12-09T11:17:55.885Z,2.28
2022-12-09T11:20:23.459Z,2.28
2022-12-09T11:22:50.424Z,2.30
2022-12-09T11:25:16.840Z,2.26
2022-12-09T11:27:44.116Z,2.26
2022-12-09T11:30:13.743Z,2.26
2022-12-09T11:32:40.260Z,2.31
2022-12-09T11:35:06.836Z,2.30
2022-12-09T11:37:33.306Z,2.33
2022-12-09T11:39:59.587Z,2.39
2022-12-09T11:42:25.853Z,2.37
2022-12-09T11:44:52.130Z,2.39
2022-12-09T11:47:18.400Z,2.39
2022-12-09T11:49:44.709Z,2.43
2022-12-09T11:52:10.981Z,2.42
2022-12-09T11:54:37.251Z,2.46
2022-12-09T11:57:03.534Z,2.45
2022-12-09T11:59:34.754Z,2.43
2022-12-09T12:02:04.052Z,2.45
2022-12-09T12:04:30.326Z,2.44
2022-12-09T12:06:56.672Z,2.45
2022-12-09T12:09:23.018Z,2.44
2022-12-09T12:11:49.310Z,2.47
2022-12-09T12:14:15.603Z,2.48
2022-12-09T12:16:41.882Z,2.47
2022-12-09T12:19:08.142Z,2.45
2022-12-09T12:21:34.428Z,2.41
2022-12-09T12:24:00.687Z,2.38
2022-12-09T12:26:26.985Z,2.39
2022-12-09T12:28:58.027Z,2.39
2022-12-09T12:31:26.501Z,2.39
2022-12-09T12:34:16.055Z,2.45
2022-12-09T12:36:39.070Z,2.49
2022-12-09T12:39:05.359Z,2.52
2022-12-09T12:41:31.648Z,2.57
2022-12-09T12:43:57.897Z,2.62
2022-12-09T12:46:24.234Z,2.61
2022-12-09T12:48:50.513Z,2.65
2022-12-09T12:51:16.766Z,2.65
2022-12-09T12:53:43.045Z,2.66
2022-12-09T12:56:09.292Z,2.68
2022-12-09T12:58:35.576Z,2.70
2022-12-09T13:01:01.907Z,2.71
2022-12-09T13:03:28.281Z,2.68
2022-12-09T13:05:54.555Z,2.66
2022-12-09T13:08:20.893Z,2.66
2022-12-09T13:10:47.185Z,2.70
2022-12-09T13:13:13.484Z,2.72
2022-12-09T13:15:39.736Z,2.71
2022-12-09T13:18:05.985Z,2.73
2022-12-09T13:20:32.264Z,2.74
2022-12-09T13:22:58.510Z,2.75
2022-12-09T13:25:24.778Z,2.74
2022-12-09T13:27:51.106Z,2.74
2022-12-09T13:30:17.427Z,2.77
2022-12-09T13:32:43.686Z,2.78
2022-12-09T13:35:09.958Z,2.81
2022-12-09T13:37:36.211Z,2.85
2022-12-09T13:40:02.491Z,2.85
2022-12-09T13:42:28.814Z,2.86
2022-12-09T13:44:55.085Z,2.88
2022-12-09T13:47:21.359Z,2.88
2022-12-09T13:49:47.624Z,2.88
2022-12-09T13:52:13.938Z,2.86
2022-12-09T13:54:40.286Z,2.88
2022-12-09T13:57:06.560Z,2.90
2022-12-09T13:59:32.826Z,2.90
2022-12-09T14:01:59.103Z,2.93
2022-12-09T14:04:25.392Z,2.94
2022-12-09T14:06:51.638Z,2.96
2022-12-09T14:09:17.904Z,2.98
2022-12-09T14:11:44.179Z,2.97
2022-12-09T14:14:10.457Z,3.00
2022-12-09T14:16:36.732Z,3.01
2022-12-09T14:19:02.989Z,3.01
2022-12-09T14:21:29.229Z,3.02
2022-12-09T14:23:55.511Z,2.96
2022-12-09T14:26:21.772Z,2.94
2022-12-09T14:28:48.039Z,2.89
2022-12-09T14:31:14.465Z,2.90
2022-12-09T14:33:40.788Z,2.91
2022-12-09T14:36:07.084Z,2.82
2022-12-09T14:38:33.348Z,2.87
2022-12-09T14:40:59.671Z,2.82
2022-12-09T14:43:26.002Z,2.70
2022-12-09T14:45:52.307Z,2.74
2022-12-09T14:48:18.607Z,2.72
2022-12-09T14:50:44.910Z,2.73
2022-12-09T14:53:11.184Z,2.74
2022-12-09T14:55:37.422Z,2.78
2022-12-09T14:58:03.711Z,2.85
2022-12-09T15:00:30.093Z,2.86
2022-12-09T15:05:42.621Z,2.93
2022-12-09T15:08:08.941Z,2.95
2022-12-09T15:10:35.251Z,2.88
2022-12-09T15:13:01.545Z,2.86
2022-12-09T15:15:27.853Z,2.87
2022-12-09T15:17:54.138Z,2.88
2022-12-09T15:20:20.475Z,2.91
2022-12-09T15:22:52.433Z,2.90
2022-12-09T15:25:19.132Z,2.91
2022-12-09T15:27:45.409Z,2.94
2022-12-09T15:30:11.918Z,2.94
2022-12-09T15:32:38.383Z,2.94
2022-12-09T15:35:04.660Z,2.95
2022-12-09T15:37:30.950Z,2.95
2022-12-09T15:39:57.218Z,2.96
2022-12-09T15:42:23.489Z,2.95
2022-12-09T15:44:49.800Z,2.98
2022-12-09T15:47:16.064Z,3.01
2022-12-09T15:49:42.501Z,3.03
2022-12-09T15:52:08.757Z,2.99
2022-12-09T15:54:35.023Z,3.01
2022-12-09T15:57:01.341Z,3.01
2022-12-09T15:59:27.637Z,2.99
2022-12-09T16:01:54.014Z,2.97
2022-12-09T16:04:20.457Z,2.94
2022-12-09T16:06:46.729Z,2.94
2022-12-09T16:09:13.086Z,2.76
2022-12-09T16:11:39.336Z,2.75
2022-12-09T16:14:05.600Z,2.68
2022-12-09T16:16:31.929Z,2.70
2022-12-09T16:18:58.217Z,2.69
2022-12-09T16:21:24.494Z,2.66
2022-12-09T16:23:50.786Z,2.66
2022-12-09T16:26:17.047Z,2.67
2022-12-09T16:28:43.297Z,2.68
2022-12-09T16:31:09.714Z,2.74
2022-12-09T16:33:36.027Z,2.75
2022-12-09T16:36:02.349Z,2.80
2022-12-09T16:38:28.639Z,2.81
2022-12-09T16:40:54.896Z,2.82
2022-12-09T16:43:21.170Z,2.81
2022-12-09T16:45:47.583Z,2.83
2022-12-09T16:48:14.001Z,2.84
2022-12-09T16:50:40.547Z,2.82
2022-12-09T16:53:06.945Z,2.79
2022-12-09T16:55:33.267Z,2.80
2022-12-09T16:57:59.517Z,2.78
2022-12-09T17:00:25.826Z,2.75
2022-12-09T17:02:52.113Z,2.72
2022-12-09T17:05:18.404Z,2.69
2022-12-09T17:07:44.815Z,2.70
2022-12-09T17:10:11.190Z,2.69
2022-12-09T17:12:37.543Z,2.70
2022-12-09T17:15:03.850Z,2.64
2022-12-09T17:17:30.099Z,2.64
2022-12-09T17:19:56.563Z,2.62
2022-12-09T17:22:22.841Z,2.60
2022-12-09T17:24:49.248Z,2.56
2022-12-09T17:27:15.513Z,2.63
2022-12-09T17:29:41.792Z,2.66
2022-12-09T17:32:10.219Z,2.65
2022-12-09T17:34:36.724Z,2.67
2022-12-09T17:37:02.982Z,2.70
2022-12-09T17:39:29.238Z,2.72
2022-12-09T17:41:55.555Z,2.70
2022-12-09T17:44:21.945Z,2.61
2022-12-09T17:46:48.198Z,2.60
2022-12-09T17:49:14.510Z,2.54
2022-12-09T17:51:40.790Z,2.56
2022-12-09T17:54:07.084Z,2.60
2022-12-09T17:56:33.335Z,2.63
2022-12-09T17:58:59.655Z,2.65
2022-12-09T18:01:26.071Z,2.65
2022-12-09T18:03:56.840Z,2.66
2022-12-09T18:06:24.804Z,2.59
2022-12-09T18:08:51.066Z,2.60
2022-12-09T18:11:17.335Z,2.54
2022-12-09T18:13:43.594Z,2.53
2022-12-09T18:16:09.917Z,2.54
2022-12-09T18:18:36.172Z,2.55
2022-12-09T18:21:02.473Z,2.58
2022-12-09T18:23:28.776Z,2.60
2022-12-09T18:25:55.039Z,2.61
2022-12-09T18:28:21.298Z,2.57
2022-12-09T18:30:47.636Z,2.58
2022-12-09T18:33:14.158Z,2.60
2022-12-09T18:35:40.425Z,2.57
2022-12-09T18:38:12.508Z,2.55
2022-12-09T18:40:39.163Z,2.57
2022-12-09T18:43:05.434Z,2.60
2022-12-09T18:45:31.711Z,2.65
2022-12-09T18:47:57.980Z,2.69
2022-12-09T18:50:24.257Z,2.71
2022-12-09T18:52:50.557Z,2.73
2022-12-09T18:55:16.875Z,2.71
2022-12-09T18:57:43.179Z,2.66
2022-12-09T19:00:09.681Z,2.68
2022-12-09T19:02:36.110Z,2.68
2022-12-09T19:05:02.407Z,2.64
2022-12-09T19:07:32.292Z,2.61
2022-12-09T19:09:58.897Z,2.60
2022-12-09T19:15:11.397Z,2.52
2022-12-09T19:17:37.666Z,2.48
2022-12-09T19:20:03.922Z,2.42
2022-12-09T19:22:30.207Z,2.39
2022-12-09T19:24:56.470Z,2.37
2022-12-09T19:27:22.736Z,2.42
2022-12-09T19:29:49.032Z,2.42
2022-12-09T19:32:50.926Z,2.43
2022-12-09T19:35:01.596Z,2.44
2022-12-09T19:37:27.866Z,2.37
2022-12-09T19:39:54.126Z,2.39
2022-12-09T19:42:20.402Z,2.37
2022-12-09T19:45:04.453Z,2.39
2022-12-09T19:47:32.884Z,2.36
2022-12-09T19:49:59.157Z,2.39
2022-12-09T19:52:25.429Z,2.41
2022-12-09T19:54:51.684Z,2.40
2022-12-09T19:57:17.957Z,2.36
2022-12-09T19:59:44.206Z,2.38
2022-12-09T20:02:10.470Z,2.31
2022-12-09T20:04:52.101Z,2.31
2022-12-09T20:07:18.404Z,2.26
2022-12-09T20:09:44.685Z,2.32
2022-12-09T20:12:10.959Z,2.34
2022-12-09T20:14:37.244Z,2.33
2022-12-09T20:17:03.502Z,2.39
2022-12-09T20:19:29.754Z,2.44
2022-12-09T20:21:56.041Z,2.49
2022-12-09T20:24:22.369Z,2.50
2022-12-09T20:26:48.639Z,2.48
2022-12-09T20:29:14.887Z,2.55
2022-12-09T20:31:41.201Z,2.54
2022-12-09T20:34:07.517Z,2.55
2022-12-09T20:36:34.002Z,2.52
2022-12-09T20:39:00.269Z,2.50
2022-12-09T20:41:26.514Z,2.52
2022-12-09T20:43:52.780Z,2.50
2022-12-09T20:46:19.072Z,2.47
2022-12-09T20:48:45.348Z,2.49
2022-12-09T20:51:11.613Z,2.40
2022-12-09T20:53:37.867Z,2.43
2022-12-09T20:56:04.137Z,2.43
2022-12-09T20:58:30.425Z,2.37
2022-12-09T21:00:56.730Z,2.37
2022-12-09T21:03:24.118Z,2.36
2022-12-09T21:05:50.393Z,2.33
2022-12-09T21:08:16.673Z,2.34
2022-12-09T21:10:42.969Z,2.38
2022-12-09T21:13:09.225Z,2.40
2022-12-09T21:15:35.501Z,2.40
2022-12-09T21:18:01.776Z,2.45
2022-12-09T21:20:28.045Z,2.46
2022-12-09T21:23:24.830Z,2.47
2022-12-09T21:25:40.602Z,2.50
2022-12-09T21:28:06.853Z,2.51
2022-12-09T21:30:33.156Z,2.42
2022-12-09T21:32:59.429Z,2.35
2022-12-09T21:35:25.709Z,2.37
2022-12-09T21:37:56.137Z,2.38
2022-12-09T21:40:22.609Z,2.41
2022-12-09T21:42:48.908Z,2.41
2022-12-09T21:45:15.165Z,2.46
2022-12-09T21:47:41.453Z,2.43
2022-12-09T21:50:08.001Z,2.38
2022-12-09T21:52:34.531Z,2.41
2022-12-09T21:55:00.773Z,2.30
2022-12-09T21:57:27.064Z,2.34
2022-12-09T21:59:53.333Z,2.40
2022-12-09T22:02:19.596Z,2.38
2022-12-09T22:04:45.882Z,2.38
2022-12-09T22:07:12.189Z,2.35
2022-12-09T22:09:38.439Z,2.38
2022-12-09T22:12:04.730Z,2.37
2022-12-09T22:14:30.994Z,2.34
2022-12-09T22:16:57.300Z,2.32
2022-12-09T22:19:23.579Z,2.31
2022-12-09T22:21:49.827Z,2.31
2022-12-09T22:24:16.115Z,2.30
2022-12-09T22:26:42.393Z,2.30
2022-12-09T22:29:08.673Z,2.26
2022-12-09T22:31:34.949Z,2.29
2022-12-09T22:34:01.266Z,2.20
2022-12-09T22:36:27.553Z,2.24
2022-12-09T22:38:53.799Z,2.28
2022-12-09T22:41:20.087Z,2.28
2022-12-09T22:43:46.346Z,2.28
2022-12-09T22:46:12.679Z,2.33
2022-12-09T22:48:38.992Z,2.33
2022-12-09T22:51:05.266Z,2.31
2022-12-09T22:53:31.514Z,2.37
2022-12-09T22:55:57.769Z,2.41
2022-12-09T22:58:24.029Z,2.41
2022-12-09T23:00:50.389Z,2.45
2022-12-09T23:03:16.742Z,2.45
2022-12-09T23:05:43.033Z,2.48
2022-12-09T23:08:09.356Z,2.49
2022-12-09T23:10:35.695Z,2.48
2022-12-09T23:13:01.984Z,2.57
2022-12-09T23:15:28.387Z,2.64
2022-12-09T23:17:54.716Z,2.69
2022-12-09T23:20:20.961Z,2.68
2022-12-09T23:22:47.242Z,2.63
2022-12-09T23:25:13.512Z,2.61
2022-12-09T23:27:39.796Z,2.57
2022-12-09T23:30:06.508Z,2.65
2022-12-09T23:32:33.033Z,2.64
2022-12-09T23:35:03.070Z,2.61
2022-12-09T23:37:32.179Z,2.62
2022-12-09T23:39:58.483Z,2.59
2022-12-09T23:42:24.734Z,2.60
2022-12-09T23:44:50.992Z,2.63
2022-12-09T23:47:17.285Z,2.62
2022-12-09T23:49:43.585Z,2.63
2022-12-09T23:52:09.849Z,2.60
2022-12-09T23:54:36.177Z,2.63
2022-12-09T23:57:02.499Z,2.61
2022-12-09T23:59:28.802Z,2.58
